KDXR

Danbury Municipal Airport

Danbury, Connecticut, USA
METAR KDXR 241153Z 00000KT 1/2SM FG BKN004 BKN010 01/01 A3016 RMK AO2 SLP216 70016 T00110011 10050 20011 53014
Observed Flight Rules
Feb-24 @ 11:53 UTC (28 minutes ago) Instrument Flight Rules
Wind Visibility Clouds Conditions
Calm 1/2 miles
  • Broken at 400' AGL
  • Broken at 1,000' AGL
  • Fog
Temperatures Readings
Current 1°C / 34°F
Dewpoint 1°C / 34°F
Humidity 100%
Altimeter 30.16" Hg
Pressure 1021.6 hPa
Elevation 139
METAR KDXR 241153Z 00000KT 1/2SM FG BKN004 BKN010 01/01 A3016 RMK AO2 SLP216 70016 T00110011 10050 20011 53014
Observed Flight Rules
Feb-24 @ 11:53 UTC
(28 minutes ago)
LIFR
Wind Visibility
Calm 1/2 miles
Clouds
  • Broken at 400' AGL
  • Broken at 1,000' AGL
Conditions
  • Fog
Temperature Dewpoint
1°C / 34°F 1°C / 34°F
Humidity Altimeter Pressure
100% 30.16" Hg 1021.6 hPa